createdAt,value
2022-09-23T00:01:07.451Z,10.62
2022-09-23T00:03:35.242Z,10.67
2022-09-23T00:06:04.642Z,10.73
2022-09-23T00:08:31.545Z,10.67
2022-09-23T00:11:05.344Z,10.72
2022-09-23T00:13:33.439Z,10.69
2022-09-23T00:16:08.881Z,10.83
2022-09-23T00:18:35.497Z,10.75
2022-09-23T00:21:06.534Z,10.70
2022-09-23T00:23:34.223Z,10.61
2022-09-23T00:26:03.932Z,10.51
2022-09-23T00:28:32.289Z,10.50
2022-09-23T00:31:07.842Z,10.44
2022-09-23T00:33:34.672Z,10.38
2022-09-23T00:36:03.936Z,10.41
2022-09-23T00:38:31.088Z,10.39
2022-09-23T00:40:58.448Z,10.32
2022-09-23T00:43:47.241Z,10.34
2022-09-23T00:46:29.369Z,10.43
2022-09-23T00:49:01.348Z,10.44
2022-09-23T00:51:34.730Z,10.45
2022-09-23T00:54:02.689Z,10.28
2022-09-23T00:56:31.307Z,10.23
2022-09-23T00:58:58.051Z,10.28
2022-09-23T01:01:25.245Z,10.34
2022-09-23T01:03:54.372Z,10.38
2022-09-23T01:06:21.429Z,10.37
2022-09-23T01:08:48.675Z,10.31
2022-09-23T01:11:38.050Z,10.33
2022-09-23T01:14:32.569Z,10.33
2022-09-23T01:17:07.497Z,10.27
2022-09-23T01:19:57.874Z,10.30
2022-09-23T01:22:44.419Z,10.28
2022-09-23T01:25:57.218Z,10.28
2022-09-23T01:29:20.245Z,10.16
2022-09-23T01:32:03.289Z,10.27
2022-09-23T01:34:49.122Z,10.33
2022-09-23T01:37:30.963Z,10.24
2022-09-23T01:40:11.410Z,10.24
2022-09-23T01:42:44.887Z,10.21
2022-09-23T01:45:19.886Z,10.15
2022-09-23T01:48:10.429Z,10.19
2022-09-23T01:50:56.224Z,10.21
2022-09-23T01:53:41.058Z,10.11
2022-09-23T01:56:23.432Z,10.14
2022-09-23T01:58:57.232Z,10.16
2022-09-23T02:01:40.451Z,10.14
2022-09-23T02:04:13.073Z,10.07
2022-09-23T02:06:46.676Z,9.97
2022-09-23T02:09:16.798Z,9.93
2022-09-23T02:11:48.131Z,9.91
2022-09-23T02:15:03.069Z,9.94
2022-09-23T02:17:59.478Z,9.96
2022-09-23T02:20:30.160Z,10.05
2022-09-23T02:23:03.637Z,9.97
2022-09-23T02:25:39.412Z,9.94
2022-09-23T02:28:19.017Z,9.97
2022-09-23T02:30:49.060Z,10.04
2022-09-23T02:33:32.064Z,10.06
2022-09-23T02:36:12.478Z,10.07
2022-09-23T02:38:52.438Z,10.02
2022-09-23T02:41:50.263Z,10.07
2022-09-23T02:44:19.821Z,10.11
2022-09-23T02:46:46.958Z,10.05
2022-09-23T02:49:17.474Z,10.01
2022-09-23T02:51:45.453Z,10.08
2022-09-23T02:54:16.892Z,10.06
2022-09-23T02:56:43.704Z,10.05
2022-09-23T02:59:12.778Z,10.17
2022-09-23T03:02:07.846Z,10.18
2022-09-23T03:05:03.818Z,10.23
2022-09-23T03:07:40.803Z,10.16
2022-09-23T03:10:19.489Z,10.17
2022-09-23T03:13:14.711Z,10.22
2022-09-23T03:15:59.575Z,10.17
2022-09-23T03:18:40.328Z,10.14
2022-09-23T03:21:14.835Z,10.23
2022-09-23T03:23:43.367Z,10.07
2022-09-23T03:26:19.197Z,9.97
2022-09-23T03:28:46.697Z,9.98
2022-09-23T03:31:15.271Z,9.98
2022-09-23T03:33:47.195Z,10.02
2022-09-23T03:36:37.321Z,9.97
2022-09-23T03:39:12.499Z,10.00
2022-09-23T03:41:50.872Z,10.04
2022-09-23T03:44:19.572Z,9.95
2022-09-23T03:46:49.794Z,9.93
2022-09-23T03:49:19.900Z,9.93
2022-09-23T03:51:46.484Z,9.88
2022-09-23T03:54:13.046Z,9.85
2022-09-23T03:56:39.544Z,9.91
2022-09-23T03:59:06.133Z,9.98
2022-09-23T04:01:32.778Z,9.98
2022-09-23T04:04:00.060Z,10.02
2022-09-23T04:06:26.680Z,10.01
2022-09-23T04:08:53.876Z,10.02
2022-09-23T04:11:20.441Z,10.01
2022-09-23T04:13:47.097Z,9.98
2022-09-23T04:16:13.697Z,9.98
2022-09-23T04:18:40.267Z,9.93
2022-09-23T04:21:06.819Z,9.93
2022-09-23T04:23:33.423Z,9.92
2022-09-23T04:26:19.757Z,9.97
2022-09-23T04:28:53.667Z,9.94
2022-09-23T04:31:26.558Z,9.94
2022-09-23T04:33:53.741Z,9.97
2022-09-23T04:36:20.776Z,9.92
2022-09-23T04:38:48.730Z,9.94
2022-09-23T04:41:16.585Z,9.93
2022-09-23T04:43:44.014Z,9.90
2022-09-23T04:46:12.958Z,9.88
2022-09-23T04:48:44.226Z,9.83
2022-09-23T04:51:13.502Z,9.80
2022-09-23T04:53:42.141Z,9.78
2022-09-23T04:56:11.709Z,9.77
2022-09-23T04:58:38.912Z,9.67
2022-09-23T05:01:25.241Z,9.70
2022-09-23T05:03:56.188Z,9.55
2022-09-23T05:06:22.826Z,9.51
2022-09-23T05:08:52.405Z,9.65
2022-09-23T05:11:19.473Z,9.54
2022-09-23T05:13:51.047Z,9.56
2022-09-23T05:16:18.843Z,9.55
2022-09-23T05:18:46.697Z,9.55
2022-09-23T05:21:16.023Z,9.58
2022-09-23T05:23:46.859Z,9.58
2022-09-23T05:26:14.135Z,9.58
2022-09-23T05:28:40.809Z,9.48
2022-09-23T05:31:20.039Z,9.51
2022-09-23T05:33:51.852Z,9.49
2022-09-23T05:36:20.510Z,9.49
2022-09-23T05:38:49.317Z,9.50
2022-09-23T05:41:17.183Z,9.48
2022-09-23T05:43:43.963Z,9.66
2022-09-23T05:46:13.156Z,9.68
2022-09-23T05:48:41.139Z,9.68
2022-09-23T05:51:12.805Z,9.69
2022-09-23T05:53:40.943Z,9.70
2022-09-23T05:56:08.090Z,9.61
2022-09-23T05:58:34.802Z,9.57
2022-09-23T06:01:01.537Z,9.61
2022-09-23T06:03:28.341Z,9.63
2022-09-23T06:05:55.945Z,9.55
2022-09-23T06:08:23.579Z,9.66
2022-09-23T06:10:54.459Z,9.65
2022-09-23T06:13:21.530Z,9.46
2022-09-23T06:15:48.162Z,9.61
2022-09-23T06:18:14.807Z,9.78
2022-09-23T06:20:41.340Z,9.86
2022-09-23T06:23:10.699Z,9.88
2022-09-23T06:25:38.520Z,9.95
2022-09-23T06:28:07.431Z,9.97
2022-09-23T06:30:34.789Z,10.03
2022-09-23T06:33:01.915Z,10.12
2022-09-23T06:35:28.921Z,10.14
2022-09-23T06:37:55.855Z,10.14
2022-09-23T06:40:22.764Z,9.98
2022-09-23T06:42:56.609Z,10.10
2022-09-23T06:45:23.498Z,10.40
2022-09-23T06:47:56.141Z,10.37
2022-09-23T06:50:26.344Z,10.26
2022-09-23T06:52:56.785Z,10.45
2022-09-23T06:55:24.849Z,10.61
2022-09-23T06:57:51.406Z,10.53
2022-09-23T07:00:19.136Z,10.56
2022-09-23T07:02:45.844Z,10.70
2022-09-23T07:05:13.465Z,10.74
2022-09-23T07:07:40.019Z,10.93
2022-09-23T07:10:07.329Z,10.98
2022-09-23T07:12:34.050Z,10.96
2022-09-23T07:15:00.756Z,11.00
2022-09-23T07:17:27.696Z,11.16
2022-09-23T07:19:58.274Z,11.16
2022-09-23T07:22:26.427Z,11.16
2022-09-23T07:24:56.333Z,11.27
2022-09-23T07:27:27.595Z,11.34
2022-09-23T07:29:55.015Z,11.48
2022-09-23T07:32:23.023Z,11.53
2022-09-23T07:34:49.796Z,11.52
2022-09-23T07:37:17.619Z,11.68
2022-09-23T07:39:44.653Z,11.86
2022-09-23T07:42:13.287Z,12.06
2022-09-23T07:44:43.986Z,12.18
2022-09-23T07:47:11.134Z,12.26
2022-09-23T07:49:38.398Z,12.05
2022-09-23T07:52:05.247Z,12.34
2022-09-23T07:54:32.156Z,12.37
2022-09-23T07:56:59.129Z,12.55
2022-09-23T07:59:27.574Z,12.69
2022-09-23T08:01:56.691Z,12.61
2022-09-23T08:04:27.666Z,12.95
2022-09-23T08:06:56.678Z,13.04
2022-09-23T08:09:26.820Z,12.93
2022-09-23T08:11:53.531Z,13.11
2022-09-23T08:14:22.194Z,13.39
2022-09-23T08:16:48.958Z,13.58
2022-09-23T08:19:16.363Z,13.60
2022-09-23T08:21:43.660Z,13.71
2022-09-23T08:24:16.631Z,13.58
2022-09-23T08:26:44.628Z,13.85
2022-09-23T08:29:16.430Z,14.16
2022-09-23T08:31:43.079Z,14.14
2022-09-23T08:34:10.171Z,14.07
2022-09-23T08:36:37.045Z,14.43
2022-09-23T08:39:04.649Z,14.46
2022-09-23T08:41:40.046Z,14.82
2022-09-23T08:44:27.212Z,14.99
2022-09-23T08:47:00.021Z,15.22
2022-09-23T08:49:35.358Z,15.30
2022-09-23T08:52:14.273Z,15.53
2022-09-23T08:54:41.617Z,15.34
2022-09-23T08:57:21.205Z,15.47
2022-09-23T08:59:49.304Z,15.48
2022-09-23T09:02:20.743Z,15.81
2022-09-23T09:04:55.013Z,16.03
2022-09-23T09:07:37.670Z,16.15
2022-09-23T09:10:07.191Z,16.42
2022-09-23T09:12:50.901Z,16.30
2022-09-23T09:15:25.431Z,16.39
2022-09-23T09:18:07.812Z,16.45
2022-09-23T09:20:39.213Z,16.39
2022-09-23T09:23:11.700Z,16.46
2022-09-23T09:25:59.388Z,16.72
2022-09-23T09:28:42.327Z,16.74
2022-09-23T09:31:12.032Z,16.69
2022-09-23T09:33:47.371Z,16.63
2022-09-23T09:36:46.009Z,16.78
2022-09-23T09:39:14.975Z,16.96
2022-09-23T09:41:49.624Z,17.07
2022-09-23T09:44:40.692Z,16.93
2022-09-23T09:47:37.514Z,16.97
2022-09-23T09:50:08.895Z,17.32
2022-09-23T09:52:39.110Z,17.19
2022-09-23T09:55:11.930Z,17.17
2022-09-23T09:57:44.813Z,17.34
2022-09-23T10:00:27.553Z,17.49
2022-09-23T10:02:59.290Z,17.41
2022-09-23T10:05:46.802Z,17.44
2022-09-23T10:08:34.405Z,17.43
2022-09-23T10:11:03.747Z,17.65
2022-09-23T10:13:31.669Z,17.55
2022-09-23T10:16:02.020Z,17.63
2022-09-23T10:18:37.628Z,17.61
2022-09-23T10:21:16.300Z,17.94
2022-09-23T10:23:48.505Z,17.98
2022-09-23T10:26:18.508Z,18.14
2022-09-23T10:28:52.355Z,18.21
2022-09-23T10:31:32.474Z,18.32
2022-09-23T10:34:03.492Z,18.15
2022-09-23T10:36:32.840Z,17.60
2022-09-23T10:39:21.222Z,17.75
2022-09-23T10:42:22.377Z,18.06
2022-09-23T10:45:18.996Z,18.26
2022-09-23T10:48:03.231Z,18.36
2022-09-23T10:50:42.025Z,18.52
2022-09-23T10:53:15.195Z,18.42
2022-09-23T10:56:09.199Z,18.51
2022-09-23T10:58:48.392Z,18.66
2022-09-23T11:01:30.986Z,18.70
2022-09-23T11:04:36.725Z,18.81
2022-09-23T11:07:22.847Z,18.84
2022-09-23T11:09:52.477Z,18.72
2022-09-23T11:12:35.404Z,18.92
2022-09-23T11:15:20.730Z,18.80
2022-09-23T11:18:12.155Z,19.02
2022-09-23T11:20:47.777Z,18.92
2022-09-23T11:23:35.553Z,19.14
2022-09-23T11:26:17.748Z,19.06
2022-09-23T11:29:09.006Z,18.98
2022-09-23T11:31:37.769Z,18.82
2022-09-23T11:34:16.292Z,18.91
2022-09-23T11:36:50.882Z,19.13
2022-09-23T11:39:21.985Z,19.01
2022-09-23T11:41:52.180Z,19.06
2022-09-23T11:44:33.478Z,19.35
2022-09-23T11:47:07.577Z,19.22
2022-09-23T11:49:43.109Z,19.17
2022-09-23T11:52:20.476Z,19.12
2022-09-23T11:54:55.833Z,19.18
2022-09-23T11:57:43.582Z,19.21
2022-09-23T12:00:19.138Z,19.18
2022-09-23T12:03:02.743Z,19.30
2022-09-23T12:05:39.273Z,19.36
2022-09-23T12:08:26.699Z,19.32
2022-09-23T12:10:56.118Z,19.27
2022-09-23T12:13:43.039Z,19.34
2022-09-23T12:16:34.688Z,19.63
2022-09-23T12:19:24.640Z,19.65
2022-09-23T12:22:04.723Z,19.58
2022-09-23T12:24:31.502Z,19.80
2022-09-23T12:27:04.903Z,19.74
2022-09-23T12:29:33.093Z,19.59
2022-09-23T12:31:59.857Z,19.95
2022-09-23T12:34:37.724Z,20.12
2022-09-23T12:37:05.577Z,20.11
2022-09-23T12:39:38.614Z,20.30
2022-09-23T12:42:17.868Z,20.44
2022-09-23T12:44:47.369Z,20.49
2022-09-23T12:47:25.812Z,20.46
2022-09-23T12:49:56.509Z,20.38
2022-09-23T12:52:32.133Z,20.50
2022-09-23T12:55:22.100Z,20.38
2022-09-23T12:57:49.075Z,20.35
2022-09-23T13:00:27.468Z,20.29
2022-09-23T13:03:18.180Z,20.38
2022-09-23T13:06:19.295Z,20.45
2022-09-23T13:08:47.487Z,20.36
2022-09-23T13:11:21.830Z,20.30
2022-09-23T13:13:49.901Z,20.27
2022-09-23T13:16:30.976Z,20.18
2022-09-23T13:19:20.654Z,20.25
2022-09-23T13:21:47.232Z,20.22
2022-09-23T13:24:14.395Z,20.26
2022-09-23T13:26:45.485Z,20.33
2022-09-23T13:29:23.743Z,20.28
2022-09-23T13:31:50.855Z,20.41
2022-09-23T13:34:22.953Z,20.48
2022-09-23T13:36:49.508Z,20.47
2022-09-23T13:39:22.369Z,20.40
2022-09-23T13:41:51.810Z,20.24
2022-09-23T13:44:20.051Z,20.21
2022-09-23T13:46:50.506Z,20.24
2022-09-23T13:49:25.918Z,19.96
2022-09-23T13:51:56.133Z,20.02
2022-09-23T13:54:36.262Z,20.09
2022-09-23T13:57:03.658Z,19.89
2022-09-23T13:59:38.472Z,19.87
2022-09-23T14:02:10.956Z,19.94
2022-09-23T14:04:37.680Z,19.87
2022-09-23T14:07:06.749Z,19.81
2022-09-23T14:09:38.153Z,19.87
2022-09-23T14:12:06.477Z,20.02
2022-09-23T14:14:37.101Z,19.93
2022-09-23T14:17:06.306Z,19.92
2022-09-23T14:19:34.887Z,19.99
2022-09-23T14:22:01.627Z,20.09
2022-09-23T14:24:34.050Z,20.15
2022-09-23T14:27:06.617Z,20.16
2022-09-23T14:29:36.801Z,20.03
2022-09-23T14:32:07.404Z,20.03
2022-09-23T14:35:04.545Z,20.11
2022-09-23T14:37:58.638Z,19.88
2022-09-23T14:41:15.109Z,19.92
2022-09-23T14:43:59.832Z,20.00
2022-09-23T14:46:37.795Z,19.99
2022-09-23T14:49:05.569Z,19.99
2022-09-23T14:51:50.448Z,20.15
2022-09-23T14:54:44.065Z,20.07
2022-09-23T14:57:22.534Z,20.13
2022-09-23T14:59:53.493Z,20.01
2022-09-23T15:02:35.099Z,20.01
2022-09-23T15:05:16.009Z,20.00
2022-09-23T15:07:55.416Z,19.98
2022-09-23T15:10:42.118Z,20.00
2022-09-23T15:13:19.695Z,20.01
2022-09-23T15:15:46.671Z,19.90
2022-09-23T15:18:21.405Z,19.86
2022-09-23T15:20:54.088Z,19.90
2022-09-23T15:23:45.633Z,19.94
2022-09-23T15:26:22.571Z,19.88
2022-09-23T15:28:50.633Z,19.81
2022-09-23T15:31:21.690Z,19.57
2022-09-23T15:33:49.580Z,19.60
2022-09-23T15:36:18.865Z,19.61
2022-09-23T15:38:46.372Z,19.60
2022-09-23T15:41:17.303Z,19.66
2022-09-23T15:43:44.577Z,19.71
2022-09-23T15:46:19.343Z,19.64
2022-09-23T15:48:58.933Z,19.72
2022-09-23T15:51:26.795Z,19.67
2022-09-23T15:53:55.234Z,19.61
2022-09-23T15:56:23.011Z,19.63
2022-09-23T15:58:50.063Z,19.59
2022-09-23T16:01:30.551Z,19.57
2022-09-23T16:04:01.242Z,19.54
2022-09-23T16:06:28.204Z,19.50
2022-09-23T16:08:55.652Z,19.50
2022-09-23T16:11:27.908Z,19.43
2022-09-23T16:13:54.729Z,19.44
2022-09-23T16:16:21.392Z,19.48
2022-09-23T16:18:50.068Z,19.46
2022-09-23T16:21:18.936Z,19.47
2022-09-23T16:23:47.689Z,19.42
2022-09-23T16:26:18.788Z,19.42
2022-09-23T16:28:46.815Z,19.40
2022-09-23T16:31:17.168Z,19.36
2022-09-23T16:33:44.849Z,19.30
2022-09-23T16:36:21.863Z,19.33
2022-09-23T16:38:48.921Z,19.23
2022-09-23T16:41:15.451Z,19.20
2022-09-23T16:43:42.335Z,19.18
2022-09-23T16:46:12.147Z,19.13
2022-09-23T16:48:45.002Z,19.11
2022-09-23T16:51:23.007Z,19.09
2022-09-23T16:53:50.959Z,19.04
2022-09-23T16:56:24.365Z,18.98
2022-09-23T16:58:55.094Z,18.93
2022-09-23T17:01:46.298Z,18.88
2022-09-23T17:04:14.379Z,18.81
2022-09-23T17:06:51.649Z,18.80
2022-09-23T17:09:20.714Z,18.70
2022-09-23T17:11:52.976Z,18.68
2022-09-23T17:14:19.547Z,18.63
2022-09-23T17:16:46.105Z,18.58
2022-09-23T17:19:12.728Z,18.52
2022-09-23T17:21:39.626Z,18.47
2022-09-23T17:24:06.824Z,18.44
2022-09-23T17:26:34.127Z,18.39
2022-09-23T17:29:01.997Z,18.37
2022-09-23T17:31:28.915Z,18.32
2022-09-23T17:33:55.581Z,18.26
2022-09-23T17:36:22.235Z,18.16
2022-09-23T17:38:53.262Z,18.15
2022-09-23T17:41:20.467Z,18.13
2022-09-23T17:43:47.449Z,18.03
2022-09-23T17:46:17.957Z,17.98
2022-09-23T17:48:45.615Z,17.95
2022-09-23T17:51:17.859Z,17.97
2022-09-23T17:53:46.848Z,17.92
2022-09-23T17:56:16.042Z,17.89
2022-09-23T17:58:44.101Z,17.85
2022-09-23T18:01:16.291Z,17.76
2022-09-23T18:03:43.538Z,17.76
2022-09-23T18:06:14.616Z,17.75
2022-09-23T18:08:43.014Z,17.70
2022-09-23T18:11:25.654Z,17.64
2022-09-23T18:13:53.365Z,17.57
2022-09-23T18:16:22.124Z,17.52
2022-09-23T18:19:10.019Z,17.50
2022-09-23T18:21:40.105Z,17.45
2022-09-23T18:24:31.256Z,17.41
2022-09-23T18:26:57.285Z,17.38
2022-09-23T18:29:23.765Z,17.32
2022-09-23T18:31:51.045Z,17.27
2022-09-23T18:34:17.937Z,17.25
2022-09-23T18:36:44.950Z,17.15
2022-09-23T18:39:12.169Z,17.21
2022-09-23T18:41:38.765Z,17.21
2022-09-23T18:44:05.492Z,17.13
2022-09-23T18:46:32.446Z,17.04
2022-09-23T18:49:18.450Z,17.01
2022-09-23T18:51:54.742Z,17.09
2022-09-23T18:54:22.984Z,16.96
2022-09-23T18:56:52.385Z,16.91
2022-09-23T18:59:20.903Z,16.88
2022-09-23T19:01:49.654Z,16.88
2022-09-23T19:04:19.274Z,16.77
2022-09-23T19:06:45.971Z,16.76
2022-09-23T19:09:13.090Z,16.68
2022-09-23T19:11:39.707Z,16.72
2022-09-23T19:14:10.777Z,16.78
2022-09-23T19:16:38.555Z,16.75
2022-09-23T19:19:05.913Z,16.66
2022-09-23T19:21:32.936Z,16.62
2022-09-23T19:24:05.744Z,16.55
2022-09-23T19:26:38.490Z,16.56
2022-09-23T19:29:08.022Z,16.53
2022-09-23T19:31:38.596Z,16.46
2022-09-23T19:34:12.726Z,16.49
2022-09-23T19:36:42.561Z,16.47
2022-09-23T19:39:17.391Z,16.49
2022-09-23T19:41:44.723Z,16.39
2022-09-23T19:44:12.046Z,16.40
2022-09-23T19:46:44.291Z,16.46
2022-09-23T19:49:11.844Z,16.45
2022-09-23T19:51:38.987Z,16.47
2022-09-23T19:54:07.263Z,16.51
2022-09-23T19:56:34.273Z,16.50
2022-09-23T19:59:02.931Z,16.46
2022-09-23T20:01:31.915Z,16.46
2022-09-23T20:03:59.239Z,16.42
2022-09-23T20:06:30.183Z,16.45
2022-09-23T20:08:59.442Z,16.42
2022-09-23T20:11:28.618Z,16.39
2022-09-23T20:14:02.238Z,16.33
2022-09-23T20:16:35.019Z,16.35
2022-09-23T20:19:01.875Z,16.26
2022-09-23T20:21:29.575Z,16.23
2022-09-23T20:23:57.261Z,16.23
2022-09-23T20:26:42.605Z,16.21
2022-09-23T20:29:10.685Z,16.12
2022-09-23T20:31:37.533Z,16.15
2022-09-23T20:34:06.972Z,16.03
2022-09-23T20:36:35.054Z,16.03
2022-09-23T20:39:05.790Z,15.99
2022-09-23T20:41:36.678Z,15.98
2022-09-23T20:44:06.177Z,15.99
2022-09-23T20:46:33.087Z,15.99
2022-09-23T20:48:59.780Z,15.96
2022-09-23T20:51:26.347Z,15.96
2022-09-23T20:53:53.155Z,15.96
2022-09-23T20:56:23.259Z,15.96
2022-09-23T20:58:52.540Z,15.92
2022-09-23T21:01:19.372Z,15.88
2022-09-23T21:03:48.434Z,15.90
2022-09-23T21:06:18.634Z,15.91
2022-09-23T21:08:45.397Z,15.92
2022-09-23T21:11:14.999Z,15.99
2022-09-23T21:13:49.152Z,16.00
2022-09-23T21:16:17.187Z,15.85
2022-09-23T21:18:45.067Z,15.80
2022-09-23T21:21:14.052Z,15.82
2022-09-23T21:23:41.887Z,15.82
2022-09-23T21:26:13.898Z,15.82
2022-09-23T21:28:42.940Z,15.85
2022-09-23T21:31:33.871Z,15.80
2022-09-23T21:34:02.703Z,15.86
2022-09-23T21:36:34.618Z,15.86
2022-09-23T21:39:04.342Z,15.86
2022-09-23T21:41:31.766Z,15.83
2022-09-23T21:44:00.261Z,15.85
2022-09-23T21:46:28.309Z,15.81
2022-09-23T21:48:57.482Z,15.75
2022-09-23T21:51:25.582Z,15.69
2022-09-23T21:53:54.586Z,15.63
2022-09-23T21:56:29.244Z,15.63
2022-09-23T21:58:57.818Z,15.60
2022-09-23T22:01:26.718Z,15.63
2022-09-23T22:03:58.689Z,15.61
2022-09-23T22:06:27.585Z,15.61
2022-09-23T22:08:59.778Z,15.54
2022-09-23T22:11:47.654Z,15.55
2022-09-23T22:14:15.809Z,15.52
2022-09-23T22:16:42.800Z,15.52
2022-09-23T22:19:10.773Z,15.54
2022-09-23T22:21:39.079Z,15.51
2022-09-23T22:24:09.559Z,15.46
2022-09-23T22:26:39.501Z,15.44
2022-09-23T22:29:27.385Z,15.33
2022-09-23T22:32:12.793Z,15.25
2022-09-23T22:34:50.586Z,15.30
2022-09-23T22:37:20.581Z,15.32
2022-09-23T22:39:47.179Z,15.32
2022-09-23T22:42:14.200Z,15.29
2022-09-23T22:44:40.850Z,15.20
2022-09-23T22:47:09.195Z,15.20
2022-09-23T22:49:35.879Z,15.24
2022-09-23T22:52:04.001Z,15.27
2022-09-23T22:54:33.926Z,15.21
2022-09-23T22:57:04.108Z,15.32
2022-09-23T22:59:30.907Z,15.28
2022-09-23T23:01:59.868Z,15.25
2022-09-23T23:04:26.988Z,15.19
2022-09-23T23:06:53.726Z,15.12
2022-09-23T23:09:20.330Z,15.20
2022-09-23T23:11:47.128Z,15.15
2022-09-23T23:14:16.806Z,15.26
2022-09-23T23:16:46.089Z,15.10
2022-09-23T23:19:16.401Z,15.12
2022-09-23T23:21:44.534Z,15.07
2022-09-23T23:24:16.651Z,15.16
2022-09-23T23:26:43.916Z,15.13
2022-09-23T23:29:12.158Z,15.12
2022-09-23T23:31:39.389Z,15.09
2022-09-23T23:34:08.345Z,15.10
2022-09-23T23:36:34.975Z,15.10
2022-09-23T23:39:01.925Z,15.17
2022-09-23T23:41:28.823Z,15.05
2022-09-23T23:43:58.367Z,14.95
2022-09-23T23:46:26.353Z,14.99
2022-09-23T23:48:54.206Z,15.01
2022-09-23T23:51:21.465Z,14.97
2022-09-23T23:53:48.236Z,14.87
2022-09-23T23:56:18.376Z,14.93
2022-09-23T23:58:45.470Z,14.82
